sensor_id;sensor_type;location;lat;lon;timestamp;P1;durP1;ratioP1;P2;durP2;ratioP2
43756;SDS011;73222;41.866;12.462;2024-01-15T00:02:06;10.85;;;4.70;;
43756;SDS011;73222;41.866;12.462;2024-01-15T00:04:38;9.10;;;4.82;;
43756;SDS011;73222;41.866;12.462;2024-01-15T00:07:05;6.95;;;4.63;;
43756;SDS011;73222;41.866;12.462;2024-01-15T00:09:31;11.00;;;5.57;;
43756;SDS011;73222;41.866;12.462;2024-01-15T00:11:56;10.32;;;5.10;;
43756;SDS011;73222;41.866;12.462;2024-01-15T00:14:22;12.13;;;7.00;;
43756;SDS011;73222;41.866;12.462;2024-01-15T00:16:47;11.38;;;7.40;;
43756;SDS011;73222;41.866;12.462;2024-01-15T00:19:15;19.85;;;9.32;;
43756;SDS011;73222;41.866;12.462;2024-01-15T00:21:40;16.50;;;9.48;;
43756;SDS011;73222;41.866;12.462;2024-01-15T00:24:06;15.73;;;11.00;;
43756;SDS011;73222;41.866;12.462;2024-01-15T00:26:31;18.25;;;11.13;;
43756;SDS011;73222;41.866;12.462;2024-01-15T00:28:57;15.05;;;10.73;;
43756;SDS011;73222;41.866;12.462;2024-01-15T00:31:22;15.43;;;10.40;;
43756;SDS011;73222;41.866;12.462;2024-01-15T00:33:47;18.33;;;12.20;;
43756;SDS011;73222;41.866;12.462;2024-01-15T00:36:13;17.85;;;12.73;;
43756;SDS011;73222;41.866;12.462;2024-01-15T00:38:39;18.38;;;13.13;;
43756;SDS011;73222;41.866;12.462;2024-01-15T00:41:04;20.20;;;13.27;;
43756;SDS011;73222;41.866;12.462;2024-01-15T00:43:30;17.10;;;12.75;;
43756;SDS011;73222;41.866;12.462;2024-01-15T00:45:55;28.27;;;13.95;;
43756;SDS011;73222;41.866;12.462;2024-01-15T00:48:21;21.73;;;15.45;;
43756;SDS011;73222;41.866;12.462;2024-01-15T00:50:46;20.13;;;14.32;;
43756;SDS011;73222;41.866;12.462;2024-01-15T00:53:11;21.13;;;14.55;;
43756;SDS011;73222;41.866;12.462;2024-01-15T00:55:37;23.27;;;16.60;;
43756;SDS011;73222;41.866;12.462;2024-01-15T00:58:03;24.23;;;16.98;;
43756;SDS011;73222;41.866;12.462;2024-01-15T01:00:28;24.08;;;16.20;;
43756;SDS011;73222;41.866;12.462;2024-01-15T01:02:54;24.45;;;16.92;;
43756;SDS011;73222;41.866;12.462;2024-01-15T01:05:19;26.35;;;17.88;;
43756;SDS011;73222;41.866;12.462;2024-01-15T01:07:45;21.45;;;16.27;;
43756;SDS011;73222;41.866;12.462;2024-01-15T01:10:10;25.70;;;18.77;;
43756;SDS011;73222;41.866;12.462;2024-01-15T01:12:35;27.50;;;18.20;;
43756;SDS011;73222;41.866;12.462;2024-01-15T01:15:01;24.60;;;18.08;;
43756;SDS011;73222;41.866;12.462;2024-01-15T01:17:27;28.17;;;17.55;;
43756;SDS011;73222;41.866;12.462;2024-01-15T01:19:53;22.33;;;15.18;;
43756;SDS011;73222;41.866;12.462;2024-01-15T01:22:18;25.50;;;15.25;;
43756;SDS011;73222;41.866;12.462;2024-01-15T01:24:43;10.70;;;7.30;;
43756;SDS011;73222;41.866;12.462;2024-01-15T01:27:09;13.00;;;9.93;;
43756;SDS011;73222;41.866;12.462;2024-01-15T01:29:34;14.80;;;10.88;;
43756;SDS011;73222;41.866;12.462;2024-01-15T01:32:00;17.40;;;12.25;;
43756;SDS011;73222;41.866;12.462;2024-01-15T01:34:25;10.73;;;6.90;;
43756;SDS011;73222;41.866;12.462;2024-01-15T01:36:51;14.52;;;8.20;;
43756;SDS011;73222;41.866;12.462;2024-01-15T01:39:16;16.08;;;10.65;;
43756;SDS011;73222;41.866;12.462;2024-01-15T01:41:42;22.58;;;11.10;;
43756;SDS011;73222;41.866;12.462;2024-01-15T01:44:07;19.20;;;11.05;;
43756;SDS011;73222;41.866;12.462;2024-01-15T01:46:33;15.55;;;9.70;;
43756;SDS011;73222;41.866;12.462;2024-01-15T01:49:00;14.13;;;9.35;;
43756;SDS011;73222;41.866;12.462;2024-01-15T01:51:30;17.38;;;10.52;;
43756;SDS011;73222;41.866;12.462;2024-01-15T01:53:56;12.18;;;7.70;;
43756;SDS011;73222;41.866;12.462;2024-01-15T01:56:21;13.18;;;9.30;;
43756;SDS011;73222;41.866;12.462;2024-01-15T01:58:47;10.85;;;6.53;;
43756;SDS011;73222;41.866;12.462;2024-01-15T02:01:13;10.20;;;6.10;;
43756;SDS011;73222;41.866;12.462;2024-01-15T02:03:40;8.57;;;6.32;;
43756;SDS011;73222;41.866;12.462;2024-01-15T02:06:06;7.75;;;4.78;;
43756;SDS011;73222;41.866;12.462;2024-01-15T02:08:33;11.07;;;7.15;;
43756;SDS011;73222;41.866;12.462;2024-01-15T02:10:59;10.30;;;7.50;;
43756;SDS011;73222;41.866;12.462;2024-01-15T02:13:25;10.77;;;4.40;;
43756;SDS011;73222;41.866;12.462;2024-01-15T02:15:50;8.93;;;4.90;;
43756;SDS011;73222;41.866;12.462;2024-01-15T02:18:15;9.32;;;5.47;;
43756;SDS011;73222;41.866;12.462;2024-01-15T02:20:41;10.82;;;5.07;;
43756;SDS011;73222;41.866;12.462;2024-01-15T02:25:31;7.55;;;4.07;;
43756;SDS011;73222;41.866;12.462;2024-01-15T02:27:57;8.27;;;3.55;;
43756;SDS011;73222;41.866;12.462;2024-01-15T02:30:25;6.32;;;3.67;;
43756;SDS011;73222;41.866;12.462;2024-01-15T02:32:50;6.50;;;3.45;;
43756;SDS011;73222;41.866;12.462;2024-01-15T02:35:16;7.18;;;3.42;;
43756;SDS011;73222;41.866;12.462;2024-01-15T02:37:41;7.57;;;3.10;;
43756;SDS011;73222;41.866;12.462;2024-01-15T02:40:07;8.30;;;3.03;;
43756;SDS011;73222;41.866;12.462;2024-01-15T02:42:33;7.18;;;3.60;;
43756;SDS011;73222;41.866;12.462;2024-01-15T02:44:58;4.43;;;3.00;;
43756;SDS011;73222;41.866;12.462;2024-01-15T02:47:23;4.63;;;3.47;;
43756;SDS011;73222;41.866;12.462;2024-01-15T02:49:49;7.47;;;3.65;;
43756;SDS011;73222;41.866;12.462;2024-01-15T02:52:14;5.30;;;3.40;;
43756;SDS011;73222;41.866;12.462;2024-01-15T02:54:39;5.85;;;3.80;;
43756;SDS011;73222;41.866;12.462;2024-01-15T02:57:05;5.82;;;4.07;;
43756;SDS011;73222;41.866;12.462;2024-01-15T02:59:30;8.48;;;4.43;;
43756;SDS011;73222;41.866;12.462;2024-01-15T03:01:55;7.07;;;3.50;;
43756;SDS011;73222;41.866;12.462;2024-01-15T03:04:21;5.30;;;3.75;;
43756;SDS011;73222;41.866;12.462;2024-01-15T03:06:46;9.30;;;3.45;;
43756;SDS011;73222;41.866;12.462;2024-01-15T03:09:11;8.45;;;3.90;;
43756;SDS011;73222;41.866;12.462;2024-01-15T03:11:37;5.85;;;3.70;;
43756;SDS011;73222;41.866;12.462;2024-01-15T03:14:04;6.68;;;4.10;;
43756;SDS011;73222;41.866;12.462;2024-01-15T03:16:29;7.40;;;4.18;;
43756;SDS011;73222;41.866;12.462;2024-01-15T03:18:54;8.77;;;5.18;;
43756;SDS011;73222;41.866;12.462;2024-01-15T03:21:20;8.25;;;4.57;;
43756;SDS011;73222;41.866;12.462;2024-01-15T03:23:45;6.53;;;4.32;;
43756;SDS011;73222;41.866;12.462;2024-01-15T03:26:11;18.60;;;4.20;;
43756;SDS011;73222;41.866;12.462;2024-01-15T03:28:36;7.60;;;3.65;;
43756;SDS011;73222;41.866;12.462;2024-01-15T03:31:02;5.65;;;3.75;;
43756;SDS011;73222;41.866;12.462;2024-01-15T03:33:27;6.15;;;4.20;;
43756;SDS011;73222;41.866;12.462;2024-01-15T03:35:52;5.72;;;3.35;;
43756;SDS011;73222;41.866;12.462;2024-01-15T03:38:18;7.40;;;3.78;;
43756;SDS011;73222;41.866;12.462;2024-01-15T03:40:43;7.97;;;5.85;;
43756;SDS011;73222;41.866;12.462;2024-01-15T03:43:08;8.90;;;5.07;;
43756;SDS011;73222;41.866;12.462;2024-01-15T03:45:34;7.45;;;3.38;;
43756;SDS011;73222;41.866;12.462;2024-01-15T03:47:59;8.75;;;6.40;;
43756;SDS011;73222;41.866;12.462;2024-01-15T03:50:25;6.53;;;3.63;;
43756;SDS011;73222;41.866;12.462;2024-01-15T03:52:50;10.38;;;6.03;;
43756;SDS011;73222;41.866;12.462;2024-01-15T03:55:15;8.00;;;4.47;;
43756;SDS011;73222;41.866;12.462;2024-01-15T03:57:41;10.57;;;6.38;;
43756;SDS011;73222;41.866;12.462;2024-01-15T04:00:06;6.57;;;4.90;;
43756;SDS011;73222;41.866;12.462;2024-01-15T04:02:32;9.13;;;6.68;;
43756;SDS011;73222;41.866;12.462;2024-01-15T04:04:58;7.88;;;4.10;;
43756;SDS011;73222;41.866;12.462;2024-01-15T04:07:23;10.18;;;6.25;;
43756;SDS011;73222;41.866;12.462;2024-01-15T04:09:49;8.80;;;6.60;;
43756;SDS011;73222;41.866;12.462;2024-01-15T04:12:14;11.15;;;5.55;;
43756;SDS011;73222;41.866;12.462;2024-01-15T04:14:39;9.07;;;5.43;;
43756;SDS011;73222;41.866;12.462;2024-01-15T04:17:05;12.25;;;10.02;;
43756;SDS011;73222;41.866;12.462;2024-01-15T04:19:30;14.18;;;8.48;;
43756;SDS011;73222;41.866;12.462;2024-01-15T04:21:55;15.07;;;9.43;;
43756;SDS011;73222;41.866;12.462;2024-01-15T04:24:21;13.50;;;7.45;;
43756;SDS011;73222;41.866;12.462;2024-01-15T04:26:46;15.00;;;9.10;;
43756;SDS011;73222;41.866;12.462;2024-01-15T04:29:12;13.35;;;7.60;;
43756;SDS011;73222;41.866;12.462;2024-01-15T04:31:37;12.32;;;6.75;;
43756;SDS011;73222;41.866;12.462;2024-01-15T04:34:02;12.75;;;7.28;;
43756;SDS011;73222;41.866;12.462;2024-01-15T04:36:28;12.82;;;7.82;;
43756;SDS011;73222;41.866;12.462;2024-01-15T04:38:53;17.42;;;9.88;;
43756;SDS011;73222;41.866;12.462;2024-01-15T04:41:19;18.33;;;10.15;;
43756;SDS011;73222;41.866;12.462;2024-01-15T04:43:44;16.30;;;9.70;;
43756;SDS011;73222;41.866;12.462;2024-01-15T04:46:09;17.80;;;10.02;;
43756;SDS011;73222;41.866;12.462;2024-01-15T04:48:35;21.25;;;12.35;;
43756;SDS011;73222;41.866;12.462;2024-01-15T04:51:00;12.68;;;10.13;;
43756;SDS011;73222;41.866;12.462;2024-01-15T04:53:26;15.63;;;11.57;;
43756;SDS011;73222;41.866;12.462;2024-01-15T04:55:51;18.38;;;10.98;;
43756;SDS011;73222;41.866;12.462;2024-01-15T04:58:16;17.80;;;10.45;;
43756;SDS011;73222;41.866;12.462;2024-01-15T05:00:42;17.80;;;12.02;;
43756;SDS011;73222;41.866;12.462;2024-01-15T05:03:07;19.45;;;10.80;;
43756;SDS011;73222;41.866;12.462;2024-01-15T05:05:33;15.98;;;10.25;;
43756;SDS011;73222;41.866;12.462;2024-01-15T05:07:58;12.70;;;8.57;;
43756;SDS011;73222;41.866;12.462;2024-01-15T05:10:23;11.38;;;8.93;;
43756;SDS011;73222;41.866;12.462;2024-01-15T05:12:49;14.38;;;8.45;;
43756;SDS011;73222;41.866;12.462;2024-01-15T05:15:14;15.35;;;7.80;;
43756;SDS011;73222;41.866;12.462;2024-01-15T05:17:39;12.93;;;7.40;;
43756;SDS011;73222;41.866;12.462;2024-01-15T05:20:05;11.38;;;6.00;;
43756;SDS011;73222;41.866;12.462;2024-01-15T05:22:30;8.95;;;5.75;;
43756;SDS011;73222;41.866;12.462;2024-01-15T05:24:56;9.88;;;4.97;;
43756;SDS011;73222;41.866;12.462;2024-01-15T05:27:21;8.88;;;5.07;;
43756;SDS011;73222;41.866;12.462;2024-01-15T05:29:47;6.72;;;4.70;;
43756;SDS011;73222;41.866;12.462;2024-01-15T05:32:12;6.90;;;4.20;;
43756;SDS011;73222;41.866;12.462;2024-01-15T05:34:37;10.73;;;3.75;;
43756;SDS011;73222;41.866;12.462;2024-01-15T05:37:03;5.97;;;4.10;;
43756;SDS011;73222;41.866;12.462;2024-01-15T05:39:28;7.22;;;3.90;;
43756;SDS011;73222;41.866;12.462;2024-01-15T05:41:54;5.40;;;3.70;;
43756;SDS011;73222;41.866;12.462;2024-01-15T05:44:19;6.30;;;3.78;;
43756;SDS011;73222;41.866;12.462;2024-01-15T05:46:44;11.80;;;3.97;;
43756;SDS011;73222;41.866;12.462;2024-01-15T05:49:10;5.65;;;3.53;;
43756;SDS011;73222;41.866;12.462;2024-01-15T05:51:35;6.55;;;3.78;;
43756;SDS011;73222;41.866;12.462;2024-01-15T05:54:00;8.70;;;3.35;;
43756;SDS011;73222;41.866;12.462;2024-01-15T05:56:26;4.88;;;3.60;;
43756;SDS011;73222;41.866;12.462;2024-01-15T05:58:51;8.45;;;3.97;;
43756;SDS011;73222;41.866;12.462;2024-01-15T06:01:17;11.88;;;4.03;;
43756;SDS011;73222;41.866;12.462;2024-01-15T06:03:42;6.80;;;3.97;;
43756;SDS011;73222;41.866;12.462;2024-01-15T06:06:08;11.32;;;4.05;;
43756;SDS011;73222;41.866;12.462;2024-01-15T06:08:34;9.00;;;4.65;;
43756;SDS011;73222;41.866;12.462;2024-01-15T06:10:59;8.63;;;4.03;;
43756;SDS011;73222;41.866;12.462;2024-01-15T06:13:25;10.93;;;3.92;;
43756;SDS011;73222;41.866;12.462;2024-01-15T06:15:50;9.57;;;3.70;;
43756;SDS011;73222;41.866;12.462;2024-01-15T06:18:16;6.05;;;4.10;;
43756;SDS011;73222;41.866;12.462;2024-01-15T06:20:48;9.55;;;4.25;;
43756;SDS011;73222;41.866;12.462;2024-01-15T06:23:14;8.25;;;4.68;;
43756;SDS011;73222;41.866;12.462;2024-01-15T06:25:39;9.93;;;4.93;;
43756;SDS011;73222;41.866;12.462;2024-01-15T06:28:06;8.40;;;5.13;;
43756;SDS011;73222;41.866;12.462;2024-01-15T06:30:31;8.95;;;4.85;;
43756;SDS011;73222;41.866;12.462;2024-01-15T06:32:57;7.68;;;5.03;;
43756;SDS011;73222;41.866;12.462;2024-01-15T06:35:22;9.75;;;4.63;;
43756;SDS011;73222;41.866;12.462;2024-01-15T06:37:47;10.70;;;5.03;;
43756;SDS011;73222;41.866;12.462;2024-01-15T06:40:13;6.75;;;4.32;;
43756;SDS011;73222;41.866;12.462;2024-01-15T06:42:38;11.07;;;5.65;;
43756;SDS011;73222;41.866;12.462;2024-01-15T06:45:04;12.95;;;6.30;;
43756;SDS011;73222;41.866;12.462;2024-01-15T06:47:29;13.15;;;7.65;;
43756;SDS011;73222;41.866;12.462;2024-01-15T06:49:57;20.40;;;13.10;;
43756;SDS011;73222;41.866;12.462;2024-01-15T06:52:23;19.17;;;12.40;;
43756;SDS011;73222;41.866;12.462;2024-01-15T06:54:49;19.23;;;13.43;;
43756;SDS011;73222;41.866;12.462;2024-01-15T06:57:14;19.48;;;14.90;;
43756;SDS011;73222;41.866;12.462;2024-01-15T06:59:40;20.05;;;13.77;;
43756;SDS011;73222;41.866;12.462;2024-01-15T07:02:05;19.88;;;14.52;;
43756;SDS011;73222;41.866;12.462;2024-01-15T07:04:31;18.23;;;10.75;;
43756;SDS011;73222;41.866;12.462;2024-01-15T07:06:56;17.38;;;10.82;;
43756;SDS011;73222;41.866;12.462;2024-01-15T07:09:21;14.68;;;6.68;;
43756;SDS011;73222;41.866;12.462;2024-01-15T07:11:47;14.43;;;7.20;;
43756;SDS011;73222;41.866;12.462;2024-01-15T07:14:14;12.15;;;6.68;;
43756;SDS011;73222;41.866;12.462;2024-01-15T07:16:39;8.95;;;6.32;;
43756;SDS011;73222;41.866;12.462;2024-01-15T07:19:04;10.35;;;5.45;;
43756;SDS011;73222;41.866;12.462;2024-01-15T07:21:30;13.30;;;5.53;;
43756;SDS011;73222;41.866;12.462;2024-01-15T07:23:56;9.60;;;5.25;;
43756;SDS011;73222;41.866;12.462;2024-01-15T07:26:21;15.52;;;4.75;;
43756;SDS011;73222;41.866;12.462;2024-01-15T07:28:46;21.65;;;5.25;;
43756;SDS011;73222;41.866;12.462;2024-01-15T07:31:17;9.52;;;4.88;;
43756;SDS011;73222;41.866;12.462;2024-01-15T07:33:43;12.52;;;5.63;;
43756;SDS011;73222;41.866;12.462;2024-01-15T07:36:08;9.75;;;5.20;;
43756;SDS011;73222;41.866;12.462;2024-01-15T07:38:33;13.50;;;5.93;;
43756;SDS011;73222;41.866;12.462;2024-01-15T07:40:59;10.48;;;5.32;;
43756;SDS011;73222;41.866;12.462;2024-01-15T07:43:24;10.30;;;5.25;;
43756;SDS011;73222;41.866;12.462;2024-01-15T07:45:50;8.02;;;5.45;;
43756;SDS011;73222;41.866;12.462;2024-01-15T07:48:15;9.65;;;5.32;;
43756;SDS011;73222;41.866;12.462;2024-01-15T07:50:40;11.40;;;5.63;;
43756;SDS011;73222;41.866;12.462;2024-01-15T07:53:06;15.20;;;5.95;;
43756;SDS011;73222;41.866;12.462;2024-01-15T07:55:31;10.77;;;5.47;;
43756;SDS011;73222;41.866;12.462;2024-01-15T07:57:57;9.88;;;4.97;;
43756;SDS011;73222;41.866;12.462;2024-01-15T08:00:24;10.38;;;5.10;;
43756;SDS011;73222;41.866;12.462;2024-01-15T08:02:50;8.40;;;5.18;;
43756;SDS011;73222;41.866;12.462;2024-01-15T08:05:16;9.82;;;5.38;;
43756;SDS011;73222;41.866;12.462;2024-01-15T08:07:41;12.27;;;4.78;;
43756;SDS011;73222;41.866;12.462;2024-01-15T08:10:07;13.35;;;5.20;;
43756;SDS011;73222;41.866;12.462;2024-01-15T08:12:33;16.40;;;5.07;;
43756;SDS011;73222;41.866;12.462;2024-01-15T08:14:58;10.75;;;5.38;;
43756;SDS011;73222;41.866;12.462;2024-01-15T08:17:23;11.82;;;5.03;;
43756;SDS011;73222;41.866;12.462;2024-01-15T08:19:53;13.10;;;5.43;;
43756;SDS011;73222;41.866;12.462;2024-01-15T08:22:19;9.55;;;5.78;;
43756;SDS011;73222;41.866;12.462;2024-01-15T08:24:44;13.05;;;5.63;;
43756;SDS011;73222;41.866;12.462;2024-01-15T08:27:10;19.42;;;5.60;;
43756;SDS011;73222;41.866;12.462;2024-01-15T08:29:36;11.60;;;5.82;;
43756;SDS011;73222;41.866;12.462;2024-01-15T08:32:01;13.93;;;6.07;;
43756;SDS011;73222;41.866;12.462;2024-01-15T08:34:26;11.80;;;5.57;;
43756;SDS011;73222;41.866;12.462;2024-01-15T08:36:52;14.60;;;5.57;;
43756;SDS011;73222;41.866;12.462;2024-01-15T08:39:17;16.52;;;5.85;;
43756;SDS011;73222;41.866;12.462;2024-01-15T08:41:44;13.13;;;5.22;;
43756;SDS011;73222;41.866;12.462;2024-01-15T08:44:09;11.15;;;5.13;;
43756;SDS011;73222;41.866;12.462;2024-01-15T08:46:35;12.68;;;5.82;;
43756;SDS011;73222;41.866;12.462;2024-01-15T08:49:00;16.50;;;6.47;;
43756;SDS011;73222;41.866;12.462;2024-01-15T08:51:25;18.00;;;6.28;;
43756;SDS011;73222;41.866;12.462;2024-01-15T08:53:51;11.93;;;5.85;;
43756;SDS011;73222;41.866;12.462;2024-01-15T08:56:16;14.40;;;5.78;;
43756;SDS011;73222;41.866;12.462;2024-01-15T08:58:42;15.90;;;6.10;;
43756;SDS011;73222;41.866;12.462;2024-01-15T09:01:07;16.00;;;6.07;;
43756;SDS011;73222;41.866;12.462;2024-01-15T09:03:32;18.67;;;6.43;;
43756;SDS011;73222;41.866;12.462;2024-01-15T09:05:59;20.50;;;6.28;;
43756;SDS011;73222;41.866;12.462;2024-01-15T09:08:24;19.02;;;5.72;;
43756;SDS011;73222;41.866;12.462;2024-01-15T09:10:49;12.63;;;6.43;;
43756;SDS011;73222;41.866;12.462;2024-01-15T09:13:15;14.07;;;6.18;;
43756;SDS011;73222;41.866;12.462;2024-01-15T09:15:41;18.27;;;6.50;;
43756;SDS011;73222;41.866;12.462;2024-01-15T09:18:07;15.85;;;6.18;;
43756;SDS011;73222;41.866;12.462;2024-01-15T09:20:33;17.38;;;5.95;;
43756;SDS011;73222;41.866;12.462;2024-01-15T09:22:58;12.55;;;6.57;;
43756;SDS011;73222;41.866;12.462;2024-01-15T09:25:23;15.55;;;6.00;;
43756;SDS011;73222;41.866;12.462;2024-01-15T09:27:50;14.15;;;6.82;;
43756;SDS011;73222;41.866;12.462;2024-01-15T09:30:15;17.65;;;7.20;;
43756;SDS011;73222;41.866;12.462;2024-01-15T09:32:41;19.80;;;7.50;;
43756;SDS011;73222;41.866;12.462;2024-01-15T09:35:06;28.27;;;10.02;;
43756;SDS011;73222;41.866;12.462;2024-01-15T09:37:32;18.42;;;7.95;;
43756;SDS011;73222;41.866;12.462;2024-01-15T09:39:57;28.40;;;8.65;;
43756;SDS011;73222;41.866;12.462;2024-01-15T09:42:23;30.08;;;7.97;;
43756;SDS011;73222;41.866;12.462;2024-01-15T09:44:50;17.10;;;7.82;;
43756;SDS011;73222;41.866;12.462;2024-01-15T09:47:16;16.75;;;6.45;;
43756;SDS011;73222;41.866;12.462;2024-01-15T09:49:43;21.17;;;7.30;;
43756;SDS011;73222;41.866;12.462;2024-01-15T09:52:10;17.63;;;8.10;;
43756;SDS011;73222;41.866;12.462;2024-01-15T09:54:36;18.05;;;7.43;;
43756;SDS011;73222;41.866;12.462;2024-01-15T09:57:02;16.65;;;6.95;;
43756;SDS011;73222;41.866;12.462;2024-01-15T09:59:28;19.63;;;6.55;;
43756;SDS011;73222;41.866;12.462;2024-01-15T10:01:54;24.13;;;5.43;;
43756;SDS011;73222;41.866;12.462;2024-01-15T10:04:22;15.27;;;5.80;;
43756;SDS011;73222;41.866;12.462;2024-01-15T10:06:48;16.10;;;5.95;;
43756;SDS011;73222;41.866;12.462;2024-01-15T10:09:17;22.95;;;6.35;;
43756;SDS011;73222;41.866;12.462;2024-01-15T10:11:42;15.10;;;5.90;;
43756;SDS011;73222;41.866;12.462;2024-01-15T10:14:09;13.77;;;5.57;;
43756;SDS011;73222;41.866;12.462;2024-01-15T10:16:37;14.82;;;5.07;;
43756;SDS011;73222;41.866;12.462;2024-01-15T10:19:03;16.48;;;4.75;;
43756;SDS011;73222;41.866;12.462;2024-01-15T10:21:28;18.10;;;4.55;;
43756;SDS011;73222;41.866;12.462;2024-01-15T10:23:57;14.48;;;6.35;;
43756;SDS011;73222;41.866;12.462;2024-01-15T10:26:25;17.15;;;5.47;;
43756;SDS011;73222;41.866;12.462;2024-01-15T10:28:51;25.27;;;7.18;;
43756;SDS011;73222;41.866;12.462;2024-01-15T10:31:19;21.60;;;5.65;;
43756;SDS011;73222;41.866;12.462;2024-01-15T10:33:47;12.82;;;5.63;;
43756;SDS011;73222;41.866;12.462;2024-01-15T10:36:13;22.88;;;6.68;;
43756;SDS011;73222;41.866;12.462;2024-01-15T10:38:41;21.75;;;7.07;;
43756;SDS011;73222;41.866;12.462;2024-01-15T10:41:07;20.33;;;5.97;;
43756;SDS011;73222;41.866;12.462;2024-01-15T10:43:33;15.45;;;5.75;;
43756;SDS011;73222;41.866;12.462;2024-01-15T10:45:59;16.48;;;6.03;;
43756;SDS011;73222;41.866;12.462;2024-01-15T10:48:25;15.63;;;6.15;;
43756;SDS011;73222;41.866;12.462;2024-01-15T10:50:53;19.10;;;6.18;;
43756;SDS011;73222;41.866;12.462;2024-01-15T10:53:18;24.80;;;5.85;;
43756;SDS011;73222;41.866;12.462;2024-01-15T10:55:44;18.83;;;8.88;;
43756;SDS011;73222;41.866;12.462;2024-01-15T10:58:11;19.92;;;6.32;;
43756;SDS011;73222;41.866;12.462;2024-01-15T11:00:39;16.75;;;6.38;;
43756;SDS011;73222;41.866;12.462;2024-01-15T11:03:05;16.55;;;5.78;;
43756;SDS011;73222;41.866;12.462;2024-01-15T11:05:43;16.15;;;6.40;;
43756;SDS011;73222;41.866;12.462;2024-01-15T11:08:09;16.45;;;5.68;;
43756;SDS011;73222;41.866;12.462;2024-01-15T11:10:50;23.40;;;5.97;;
43756;SDS011;73222;41.866;12.462;2024-01-15T11:16:06;23.13;;;5.57;;
43756;SDS011;73222;41.866;12.462;2024-01-15T11:18:43;18.02;;;5.03;;
43756;SDS011;73222;41.866;12.462;2024-01-15T11:21:26;25.65;;;5.70;;
43756;SDS011;73222;41.866;12.462;2024-01-15T11:23:53;16.42;;;5.85;;
43756;SDS011;73222;41.866;12.462;2024-01-15T11:26:32;20.92;;;4.28;;
43756;SDS011;73222;41.866;12.462;2024-01-15T11:55:34;16.15;;;5.03;;
43756;SDS011;73222;41.866;12.462;2024-01-15T11:58:01;17.60;;;5.88;;
43756;SDS011;73222;41.866;12.462;2024-01-15T12:00:30;21.48;;;5.38;;
43756;SDS011;73222;41.866;12.462;2024-01-15T12:02:56;15.43;;;4.60;;
43756;SDS011;73222;41.866;12.462;2024-01-15T12:05:23;14.75;;;4.80;;
43756;SDS011;73222;41.866;12.462;2024-01-15T12:07:49;17.83;;;5.28;;
43756;SDS011;73222;41.866;12.462;2024-01-15T12:10:16;12.90;;;3.92;;
43756;SDS011;73222;41.866;12.462;2024-01-15T12:15:32;13.07;;;4.78;;
43756;SDS011;73222;41.866;12.462;2024-01-15T12:18:01;14.20;;;4.20;;
43756;SDS011;73222;41.866;12.462;2024-01-15T12:20:28;21.10;;;4.25;;
43756;SDS011;73222;41.866;12.462;2024-01-15T12:22:57;12.07;;;4.35;;
43756;SDS011;73222;41.866;12.462;2024-01-15T12:25:23;26.70;;;6.78;;
43756;SDS011;73222;41.866;12.462;2024-01-15T12:27:50;15.80;;;4.07;;
43756;SDS011;73222;41.866;12.462;2024-01-15T12:30:17;18.33;;;4.40;;
43756;SDS011;73222;41.866;12.462;2024-01-15T12:32:42;13.50;;;4.45;;
43756;SDS011;73222;41.866;12.462;2024-01-15T12:35:08;17.33;;;3.97;;
43756;SDS011;73222;41.866;12.462;2024-01-15T12:37:44;15.65;;;4.38;;
43756;SDS011;73222;41.866;12.462;2024-01-15T12:40:13;14.38;;;4.95;;
43756;SDS011;73222;41.866;12.462;2024-01-15T12:42:43;14.68;;;3.70;;
43756;SDS011;73222;41.866;12.462;2024-01-15T12:45:09;16.13;;;4.65;;
43756;SDS011;73222;41.866;12.462;2024-01-15T12:47:36;16.40;;;4.78;;
43756;SDS011;73222;41.866;12.462;2024-01-15T12:50:02;20.38;;;5.00;;
43756;SDS011;73222;41.866;12.462;2024-01-15T12:52:30;16.35;;;4.65;;
43756;SDS011;73222;41.866;12.462;2024-01-15T14:01:40;17.75;;;3.88;;
43756;SDS011;73222;41.866;12.462;2024-01-15T14:06:40;17.30;;;5.05;;
43756;SDS011;73222;41.866;12.462;2024-01-15T14:09:06;16.42;;;4.55;;
43756;SDS011;73222;41.866;12.462;2024-01-15T14:11:35;16.63;;;5.80;;
43756;SDS011;73222;41.866;12.462;2024-01-15T14:19:12;18.45;;;4.75;;
43756;SDS011;73222;41.866;12.462;2024-01-15T14:21:37;16.08;;;5.05;;
43756;SDS011;73222;41.866;12.462;2024-01-15T14:24:03;15.63;;;5.22;;
43756;SDS011;73222;41.866;12.462;2024-01-15T14:26:29;14.25;;;4.78;;
43756;SDS011;73222;41.866;12.462;2024-01-15T14:28:54;24.70;;;5.97;;
43756;SDS011;73222;41.866;12.462;2024-01-15T14:31:20;16.13;;;5.22;;
43756;SDS011;73222;41.866;12.462;2024-01-15T14:33:45;17.52;;;4.90;;
43756;SDS011;73222;41.866;12.462;2024-01-15T14:36:10;13.75;;;5.00;;
43756;SDS011;73222;41.866;12.462;2024-01-15T14:38:36;22.52;;;5.15;;
43756;SDS011;73222;41.866;12.462;2024-01-15T14:41:01;10.95;;;4.68;;
43756;SDS011;73222;41.866;12.462;2024-01-15T14:43:27;15.82;;;4.25;;
43756;SDS011;73222;41.866;12.462;2024-01-15T14:45:52;14.85;;;3.90;;
43756;SDS011;73222;41.866;12.462;2024-01-15T14:48:17;17.48;;;4.65;;
43756;SDS011;73222;41.866;12.462;2024-01-15T14:50:43;20.02;;;4.18;;
43756;SDS011;73222;41.866;12.462;2024-01-15T14:53:09;12.77;;;4.72;;
43756;SDS011;73222;41.866;12.462;2024-01-15T14:55:34;18.30;;;5.07;;
43756;SDS011;73222;41.866;12.462;2024-01-15T14:57:59;13.55;;;4.50;;
43756;SDS011;73222;41.866;12.462;2024-01-15T15:00:25;18.85;;;4.60;;
43756;SDS011;73222;41.866;12.462;2024-01-15T15:02:50;15.40;;;4.50;;
43756;SDS011;73222;41.866;12.462;2024-01-15T15:05:15;12.88;;;5.10;;
43756;SDS011;73222;41.866;12.462;2024-01-15T15:07:42;26.77;;;6.20;;
43756;SDS011;73222;41.866;12.462;2024-01-15T15:10:08;18.42;;;4.43;;
43756;SDS011;73222;41.866;12.462;2024-01-15T15:12:34;19.75;;;4.70;;
43756;SDS011;73222;41.866;12.462;2024-01-15T15:14:59;13.75;;;4.43;;
43756;SDS011;73222;41.866;12.462;2024-01-15T15:17:25;13.18;;;4.78;;
43756;SDS011;73222;41.866;12.462;2024-01-15T15:19:50;22.63;;;5.07;;
43756;SDS011;73222;41.866;12.462;2024-01-15T15:22:18;17.25;;;4.40;;
43756;SDS011;73222;41.866;12.462;2024-01-15T15:24:44;20.55;;;5.25;;
43756;SDS011;73222;41.866;12.462;2024-01-15T15:27:09;21.30;;;4.63;;
43756;SDS011;73222;41.866;12.462;2024-01-15T15:29:34;21.65;;;4.45;;
43756;SDS011;73222;41.866;12.462;2024-01-15T15:32:00;18.33;;;4.97;;
43756;SDS011;73222;41.866;12.462;2024-01-15T15:34:26;18.67;;;4.47;;
43756;SDS011;73222;41.866;12.462;2024-01-15T15:36:52;18.77;;;4.97;;
43756;SDS011;73222;41.866;12.462;2024-01-15T15:39:17;19.75;;;4.90;;
43756;SDS011;73222;41.866;12.462;2024-01-15T15:41:43;18.65;;;4.85;;
43756;SDS011;73222;41.866;12.462;2024-01-15T15:44:09;18.58;;;5.43;;
43756;SDS011;73222;41.866;12.462;2024-01-15T15:46:35;18.30;;;4.10;;
43756;SDS011;73222;41.866;12.462;2024-01-15T15:49:00;17.45;;;5.25;;
43756;SDS011;73222;41.866;12.462;2024-01-15T15:51:31;24.15;;;5.15;;
43756;SDS011;73222;41.866;12.462;2024-01-15T15:53:57;21.83;;;4.95;;
43756;SDS011;73222;41.866;12.462;2024-01-15T15:56:22;26.88;;;5.97;;
43756;SDS011;73222;41.866;12.462;2024-01-15T15:58:48;21.20;;;6.68;;
43756;SDS011;73222;41.866;12.462;2024-01-15T16:01:13;18.23;;;5.32;;
43756;SDS011;73222;41.866;12.462;2024-01-15T16:03:39;13.85;;;4.90;;
43756;SDS011;73222;41.866;12.462;2024-01-15T16:06:04;19.23;;;5.65;;